Time;durP1;ratioP1;P1;durP2;ratioP2;P2;SDS_P1;SDS_P2;PMS_P1;PMS_P2;Temp;Humidity;BMP_temperature;BMP_pressure;BME280_temperature;BME280_humidity;BME280_pressure;Samples;Min_cycle;Max_cycle;Signal;HPM_P1;HPM_P2
2022/08/13 11:01:37;;;;;;;9.13;2.90;;;;;;;29.06;34.90;101833.56;5104764;27;20427;-81
2022/08/13 11:04:05;;;;;;;8.02;2.78;;;;;;;29.10;35.18;101824.22;5086067;28;20040;-85
2022/08/13 11:06:30;;;;;;;5.32;2.70;;;;;;;29.50;32.98;101814.53;5077962;28;20032;-79
2022/08/13 11:08:59;;;;;;;6.45;2.65;;;;;;;28.97;34.97;101810.03;5073818;28;20048;-78
2022/08/13 11:11:25;;;;;;;4.32;2.90;;;;;;;29.48;33.65;101816.53;5063371;28;20383;-83
2022/08/13 11:13:50;;;;;;;7.50;2.53;;;;;;;30.00;33.46;101827.31;5076348;28;20040;-83
2022/08/13 11:16:56;;;;;;;5.05;2.28;;;;;;;29.65;32.97;101820.44;5062700;28;20349;-82
2022/08/13 11:19:21;;;;;;;4.00;2.80;;;;;;;29.72;33.70;101818.06;5070287;28;20024;-81
2022/08/13 11:21:46;;;;;;;7.50;2.75;;;;;;;29.58;33.19;101794.94;5030367;28;20157;-79
2022/08/13 11:24:12;;;;;;;7.65;2.70;;;;;;;29.76;32.98;101811.41;4762011;28;20500;-79
2022/08/13 11:26:38;;;;;;;4.75;2.88;;;;;;;32.38;29.04;101813.22;5036806;28;20029;-77
2022/08/13 11:29:04;;;;;;;6.28;3.00;;;;;;;35.12;25.29;101812.59;5055117;28;20025;-78
2022/08/13 11:31:30;;;;;;;3.90;2.75;;;;;;;35.31;24.64;101808.69;5048231;28;20493;-79
2022/08/13 11:33:55;;;;;;;5.68;2.80;;;;;;;36.18;23.95;101804.28;5045854;28;20549;-78
2022/08/13 11:36:21;;;;;;;4.53;2.70;;;;;;;37.56;22.11;101792.38;5046034;28;20036;-79
2022/08/13 11:38:46;;;;;;;6.68;3.10;;;;;;;37.13;21.83;101794.00;5046377;28;20044;-79
2022/08/13 11:41:12;;;;;;;7.45;3.10;;;;;;;35.92;22.54;101793.66;5045312;28;20059;-79
2022/08/13 11:43:37;;;;;;;4.63;3.22;;;;;;;37.29;21.63;101798.47;5045352;28;20104;-79
2022/08/13 11:46:03;;;;;;;5.18;2.72;;;;;;;38.12;20.98;101807.41;5045137;28;20108;-79
2022/08/13 11:48:28;;;;;;;4.45;2.90;;;;;;;35.84;23.47;101794.53;5059530;28;20033;-78
2022/08/13 11:50:55;;;;;;;5.27;3.47;;;;;;;38.15;20.17;101787.81;5045279;28;20021;-80
2022/08/13 11:53:22;;;;;;;6.53;3.10;;;;;;;36.49;22.10;101774.19;5054999;28;20275;-79
2022/08/13 11:55:47;;;;;;;5.80;2.55;;;;;;;33.24;26.21;101781.91;5058810;28;20051;-82
2022/08/13 11:58:13;;;;;;;3.00;2.33;;;;;;;32.10;29.05;101763.47;5063389;28;20475;-78
2022/08/13 12:00:40;;;;;;;5.30;2.88;;;;;;;31.13;30.68;101771.84;5052903;28;20036;-80
2022/08/13 12:03:06;;;;;;;7.38;2.90;;;;;;;31.12;31.96;101766.59;5048244;28;20120;-82
2022/08/13 12:05:31;;;;;;;6.63;3.10;;;;;;;30.77;30.43;101757.16;5058433;28;20063;-80
2022/08/13 12:07:57;;;;;;;8.93;2.95;;;;;;;30.93;30.58;101765.56;4868853;28;20060;-77
2022/08/13 12:10:24;;;;;;;5.22;2.97;;;;;;;31.07;30.83;101758.88;4923327;28;178406;-78
2022/08/13 12:12:49;;;;;;;7.07;3.40;;;;;;;30.69;31.18;101757.03;5017449;28;20060;-78
2022/08/13 12:15:16;;;;;;;8.65;3.03;;;;;;;30.08;31.94;101764.38;5008581;28;20026;-78
2022/08/13 12:17:46;;;;;;;9.00;3.25;;;;;;;29.90;33.00;101769.59;5002030;28;20044;-79
2022/08/13 12:21:10;;;;;;;7.70;3.60;;;;;;;30.25;32.32;101754.69;4887764;27;20374;-80
2022/08/13 12:23:36;;;;;;;5.10;3.72;;;;;;;30.60;31.20;101756.03;4838414;28;20081;-82
2022/08/13 12:26:01;;;;;;;8.60;3.90;;;;;;;31.05;31.05;101751.88;4985412;28;20062;-81
2022/08/13 12:28:28;;;;;;;4.05;3.42;;;;;;;31.09;30.78;101746.03;4986926;28;20035;-82
2022/08/13 12:31:05;;;;;;;9.73;3.88;;;;;;;30.77;31.92;101739.06;4983118;28;20029;-78
2022/08/13 12:33:32;;;;;;;6.60;3.80;;;;;;;31.03;32.66;101743.88;4986541;28;20022;-83
2022/08/13 12:36:44;;;;;;;8.57;4.03;;;;;;;32.75;28.45;101743.44;5106211;27;20821;-78
2022/08/13 12:39:10;;;;;;;9.65;4.57;;;;;;;33.45;27.22;101737.09;5041713;28;20053;-78
2022/08/13 12:41:35;;;;;;;6.90;4.07;;;;;;;34.07;26.89;101728.66;5031499;28;20045;-80
2022/08/13 12:44:00;;;;;;;4.60;4.20;;;;;;;34.46;26.95;101729.94;5013061;28;119806;-80
2022/08/13 12:46:26;;;;;;;5.22;4.38;;;;;;;33.47;27.33;101735.06;5036617;28;20052;-79
2022/08/13 12:49:50;;;;;;;6.93;3.60;;;;;;;32.79;28.85;101736.66;5053828;28;20380;-82
2022/08/13 12:52:16;;;;;;;6.35;3.80;;;;;;;31.44;29.89;101725.47;5051597;28;20411;-83
2022/08/13 12:54:41;;;;;;;9.00;4.07;;;;;;;31.83;31.16;101729.88;5051529;28;20017;-83
2022/08/13 12:57:06;;;;;;;8.45;4.15;;;;;;;31.54;31.37;101719.16;5049964;28;20075;-82
2022/08/13 12:59:32;;;;;;;5.10;4.10;;;;;;;32.17;30.27;101715.69;5050902;28;20029;-81
2022/08/13 13:01:59;;;;;;;6.72;4.60;;;;;;;32.03;30.08;101708.91;5049507;28;20078;-81
2022/08/13 13:04:25;;;;;;;6.72;4.20;;;;;;;32.55;30.41;101715.53;5050975;28;20021;-81
2022/08/13 13:06:51;;;;;;;5.43;4.60;;;;;;;32.76;30.76;101717.94;5049476;28;20408;-80
2022/08/13 13:09:16;;;;;;;6.78;4.43;;;;;;;32.51;29.88;101712.28;5049337;28;20048;-79
2022/08/13 13:11:42;;;;;;;7.22;4.15;;;;;;;31.66;31.95;101718.84;5050592;28;20419;-77
2022/08/13 13:14:08;;;;;;;7.55;3.80;;;;;;;31.50;32.46;101708.63;5052070;28;20060;-81
2022/08/13 13:20:47;;;;;;;4.95;4.43;;;;;;;31.15;33.21;101704.75;5132982;27;20325;-80
2022/08/13 13:23:20;;;;;;;8.02;4.20;;;;;;;31.15;33.70;101712.03;5134896;28;20037;-78
2022/08/13 13:37:42;;;;;;;;;;;;;;;31.11;33.06;101705.19;5114391;27;20255;-77
2022/08/13 13:40:09;;;;;;;;;;;;;;;31.23;33.63;101709.44;5093602;28;19915;-78
2022/08/13 13:42:35;;;;;;;;;;;;;;;31.41;33.12;101704.09;5093688;28;20359;-78
2022/08/13 13:45:00;;;;;;;;;;;;;;;31.73;32.88;101707.38;5093426;28;20451;-79
2022/08/13 13:47:28;;;;;;;;;;;;;;;32.02;32.00;101704.47;5093309;28;19948;-78
2022/08/13 13:49:54;;;;;;;;;;;;;;;31.29;33.58;101697.13;5093422;28;20371;-78
2022/08/13 13:52:19;;;;;;;;;;;;;;;31.29;33.34;101689.00;5111708;28;20007;-79
2022/08/13 13:54:45;;;;;;;;;;;;;;;31.78;32.66;101699.63;5111447;28;19922;-77
2022/08/13 13:57:10;;;;;;;6.97;4.90;;;;;;;32.04;41.92;101693.44;5112443;28;20409;-86
2022/08/13 13:59:35;;;;;;;7.32;4.47;;;;;;;31.93;32.25;101675.53;5094108;28;20020;-75
2022/08/13 14:02:02;;;;;;;13.60;4.90;;;;;;;32.06;32.79;101686.88;5112072;28;20467;-75
2022/08/13 14:04:27;;;;;;;8.27;4.57;;;;;;;32.14;32.71;101677.94;5093633;28;20030;-75
2022/08/13 14:07:02;;;;;;;7.00;4.32;;;;;;;31.73;32.63;101669.38;5111908;28;20016;-78
2022/08/13 14:09:28;;;;;;;7.80;4.88;;;;;;;31.62;33.26;101678.59;5111449;28;20028;-76
2022/08/13 14:11:55;;;;;;;10.93;5.18;;;;;;;31.14;33.19;101675.91;5111099;28;20034;-77
2022/08/13 14:14:21;;;;;;;9.77;4.40;;;;;;;31.23;33.72;101671.47;5110637;28;20050;-77
2022/08/13 14:16:47;;;;;;;10.65;4.80;;;;;;;31.12;33.62;101672.50;5092353;28;20470;-76
2022/08/13 14:19:14;;;;;;;7.82;5.00;;;;;;;30.37;34.48;101661.47;5092198;28;20028;-76
2022/08/13 14:21:39;;;;;;;6.55;4.65;;;;;;;30.32;34.65;101670.03;5110750;28;20054;-77
2022/08/13 14:24:05;;;;;;;9.10;4.55;;;;;;;30.18;34.81;101675.00;5110460;28;20058;-76
2022/08/13 14:26:32;;;;;;;7.47;5.05;;;;;;;29.84;35.78;101673.53;5110480;28;20067;-77
2022/08/13 14:28:58;;;;;;;7.75;4.75;;;;;;;29.80;36.27;101662.09;5110251;28;20027;-77
2022/08/13 14:31:23;;;;;;;11.02;5.10;;;;;;;29.90;36.51;101656.75;5110571;28;20383;-77
2022/08/13 14:33:48;;;;;;;7.60;5.30;;;;;;;30.20;35.24;101651.38;5110176;28;20031;-77
2022/08/13 14:36:15;;;;;;;12.00;4.75;;;;;;;30.54;34.59;101659.94;5109975;28;20061;-78
2022/08/13 14:38:41;;;;;;;9.07;5.15;;;;;;;30.95;34.45;101660.53;5110076;28;20023;-78
2022/08/13 14:41:07;;;;;;;6.55;5.50;;;;;;;31.29;33.27;101661.88;5091853;28;20509;-78
2022/08/13 14:43:32;;;;;;;8.38;5.40;;;;;;;30.90;33.33;101657.41;5110044;28;20028;-78
2022/08/13 14:45:59;;;;;;;10.05;5.60;;;;;;;31.01;34.28;101648.25;5110263;28;20028;-79
2022/08/13 14:48:26;;;;;;;9.77;5.30;;;;;;;30.62;33.90;101648.34;5099234;28;20052;-78
2022/08/13 14:50:55;;;;;;;8.88;5.47;;;;;;;30.92;33.95;101646.41;5096653;28;20031;-78
2022/08/13 14:53:21;;;;;;;9.68;5.20;;;;;;;31.29;33.34;101632.03;5096316;28;20028;-77
2022/08/13 14:55:48;;;;;;;8.95;5.57;;;;;;;31.42;33.04;101634.38;5096537;28;20111;-78
2022/08/13 14:58:14;;;;;;;9.43;5.45;;;;;;;31.59;32.82;101628.16;5096248;28;20028;-78
2022/08/13 15:00:44;;;;;;;11.13;5.38;;;;;;;32.33;31.92;101638.91;5096119;28;20547;-78
2022/08/13 15:03:13;;;;;;;14.43;6.15;;;;;;;31.82;31.99;101639.44;5096180;28;20024;-78
2022/08/13 15:05:42;;;;;;;9.30;5.55;;;;;;;32.05;32.09;101640.84;5096054;28;20020;-78
2022/08/13 15:08:10;;;;;;;13.93;5.32;;;;;;;31.86;32.57;101641.84;5096292;28;20027;-79
2022/08/13 15:10:36;;;;;;;8.75;5.32;;;;;;;31.04;33.35;101647.13;5096035;28;20024;-82
2022/08/13 15:13:02;;;;;;;10.77;5.47;;;;;;;30.43;34.82;101628.38;5095958;28;20066;-79
2022/08/13 15:15:28;;;;;;;8.55;5.75;;;;;;;29.93;35.65;101624.00;5096113;28;20055;-78
2022/08/13 15:18:00;;;;;;;19.77;6.18;;;;;;;29.45;36.60;101633.69;5078230;28;20024;-74
2022/08/13 15:20:28;;;;;;;10.25;6.00;;;;;;;29.18;37.34;101638.84;5096157;28;20085;-77
2022/08/13 15:22:54;;;;;;;11.25;6.40;;;;;;;28.92;37.77;101644.69;5095895;28;20057;-77
2022/08/13 15:25:21;;;;;;;9.05;5.95;;;;;;;28.79;38.20;101653.88;5095930;28;20016;-77
2022/08/13 15:27:52;;;;;;;8.00;5.90;;;;;;;28.68;38.55;101653.94;5096249;28;20096;-77
2022/08/13 15:30:27;;;;;;;7.53;5.63;;;;;;;28.56;39.06;101642.31;5096166;28;20024;-77
2022/08/13 15:32:59;;;;;;;13.27;6.38;;;;;;;28.66;39.48;101652.34;5097841;28;20096;-79
2022/08/13 15:35:32;;;;;;;13.13;6.07;;;;;;;28.67;39.13;101649.53;5095700;28;20028;-77
2022/08/13 15:38:00;;;;;;;13.95;6.53;;;;;;;28.68;38.81;101639.56;5077302;28;20028;-77
2022/08/13 15:40:26;;;;;;;11.63;5.88;;;;;;;28.66;39.39;101630.75;5095300;28;20035;-78
2022/08/13 15:42:51;;;;;;;7.78;6.10;;;;;;;28.78;39.06;101645.91;5095383;28;20028;-77
2022/08/13 15:45:17;;;;;;;10.93;5.70;;;;;;;28.83;39.14;101634.69;5095577;28;20475;-78
2022/08/13 15:47:43;;;;;;;9.38;5.70;;;;;;;28.88;39.00;101627.03;5095143;28;20028;-78
2022/08/13 15:50:10;;;;;;;10.85;6.38;;;;;;;28.92;38.62;101610.41;5087930;22;20047;-79
2022/08/13 15:52:36;;;;;;;9.02;5.85;;;;;;;29.25;38.86;101621.94;5074914;28;20099;-77
2022/08/13 15:55:03;;;;;;;9.30;6.00;;;;;;;29.30;38.37;101625.09;5075990;28;20027;-79
2022/08/13 15:57:29;;;;;;;9.05;6.10;;;;;;;30.13;37.43;101626.69;5075211;28;20025;-81
2022/08/13 15:59:54;;;;;;;7.32;6.10;;;;;;;30.26;38.26;101627.28;5073824;28;20468;-81
2022/08/13 16:02:20;;;;;;;11.70;6.25;;;;;;;30.10;37.47;101616.16;5075079;28;20024;-81
2022/08/13 16:04:49;;;;;;;14.77;6.35;;;;;;;30.32;39.17;101621.25;5074821;28;20024;-82
2022/08/13 16:07:16;;;;;;;10.93;6.53;;;;;;;30.16;37.55;101604.75;5056823;28;20445;-78
2022/08/13 16:09:44;;;;;;;13.10;6.53;;;;;;;29.65;37.51;101602.13;5074475;28;20035;-78
2022/08/13 16:12:12;;;;;;;17.45;6.55;;;;;;;29.61;39.43;101592.56;5074870;28;20024;-87
2022/08/13 16:14:39;;;;;;;12.45;5.82;;;;;;;29.36;41.93;101601.22;5057011;28;20020;-83
2022/08/13 16:17:05;;;;;;;19.67;7.10;;;;;;;29.62;55.43;101617.78;5056623;28;20110;-86
2022/08/13 16:19:34;;;;;;;12.40;7.10;;;;;;;29.59;38.82;101602.69;5057942;28;20020;-79
2022/08/13 16:22:01;;;;;;;12.20;6.20;;;;;;;29.96;47.85;101606.59;5074823;28;20027;-85
2022/08/13 16:24:31;;;;;;;10.75;6.40;;;;;;;30.17;39.60;101595.63;5075299;28;20027;-78
2022/08/13 16:27:01;;;;;;;8.18;6.40;;;;;;;30.46;37.48;101598.31;5074345;28;20515;-82
2022/08/13 16:29:29;;;;;;;15.83;6.10;;;;;;;30.73;36.97;101580.44;5072937;28;20028;-81
2022/08/13 16:31:56;;;;;;;13.15;6.22;;;;;;;31.45;36.90;101594.25;5076507;28;20134;-82
2022/08/13 16:34:21;;;;;;;9.52;6.28;;;;;;;31.84;34.81;101580.41;5075387;28;20048;-80
2022/08/13 16:36:47;;;;;;;8.68;6.35;;;;;;;32.27;33.98;101582.50;5074194;28;20093;-81
2022/08/13 16:39:12;;;;;;;10.63;6.13;;;;;;;32.42;33.07;101574.63;5074107;28;20074;-82
2022/08/13 16:41:43;;;;;;;8.32;6.18;;;;;;;32.60;32.98;101567.25;5056024;28;20027;-82
2022/08/13 16:44:09;;;;;;;10.52;5.88;;;;;;;32.68;32.68;101555.56;5072862;28;20034;-82
2022/08/13 16:46:36;;;;;;;8.20;5.68;;;;;;;32.83;32.80;101553.13;5073890;28;20036;-81
2022/08/13 16:49:03;;;;;;;8.60;5.88;;;;;;;32.85;32.57;101543.81;5056129;28;20581;-81
2022/08/13 16:51:32;;;;;;;11.73;6.10;;;;;;;32.84;32.22;101557.56;5073878;28;20043;-80
2022/08/13 16:53:58;;;;;;;10.23;5.63;;;;;;;32.60;32.53;101553.66;5073699;28;20035;-80
2022/08/13 16:56:23;;;;;;;6.15;5.50;;;;;;;32.63;32.64;101553.34;5073879;28;20104;-80
2022/08/13 16:58:53;;;;;;;7.07;5.70;;;;;;;32.24;32.90;101534.75;5072311;28;20444;-80
2022/08/13 17:01:20;;;;;;;7.30;6.00;;;;;;;32.22;33.02;101557.66;5055745;28;20017;-79
2022/08/13 17:09:13;;;;;;;6.80;5.70;;;;;;;31.70;33.26;101548.38;5073723;28;20075;-82
2022/08/13 17:11:44;;;;;;;7.60;5.88;;;;;;;31.42;34.06;101548.44;5073393;28;20029;-82
2022/08/13 17:14:13;;;;;;;7.07;5.63;;;;;;;31.02;34.56;101536.06;5073664;28;20025;-83
2022/08/13 17:16:43;;;;;;;9.38;5.88;;;;;;;30.82;34.58;101535.31;5073701;28;20464;-82
2022/08/13 17:19:10;;;;;;;10.47;5.87;;;;;;;30.58;35.22;101546.66;5055578;28;20476;-83
2022/08/13 17:21:37;;;;;;;14.43;6.35;;;;;;;30.29;35.98;101539.44;5073572;28;20028;-82
2022/08/13 17:24:06;;;;;;;16.25;6.10;;;;;;;29.96;36.84;101542.50;5073527;28;20020;-82
2022/08/13 17:26:31;;;;;;;8.07;5.22;;;;;;;29.57;37.77;101542.44;5073410;28;20521;-80
2022/08/13 17:28:58;;;;;;;11.32;5.22;;;;;;;29.22;38.29;101545.66;5073243;28;20025;-81
2022/08/13 17:31:25;;;;;;;8.18;4.63;;;;;;;28.86;38.68;101534.41;5055393;28;20476;-80
2022/08/13 17:33:51;;;;;;;12.07;4.78;;;;;;;28.51;39.90;101549.16;5073238;28;20036;-80
2022/08/13 17:36:18;;;;;;;8.18;4.63;;;;;;;28.23;40.48;101549.69;5073166;28;20031;-78
2022/08/13 17:38:44;;;;;;;6.63;5.07;;;;;;;27.98;40.84;101548.22;5073202;28;20049;-78
2022/08/13 17:41:10;;;;;;;11.02;5.03;;;;;;;27.87;41.25;101557.22;5073151;28;20028;-78
2022/08/13 17:43:35;;;;;;;7.00;5.13;;;;;;;27.82;41.47;101555.88;5073204;28;20021;-78
2022/08/13 17:46:01;;;;;;;10.43;5.05;;;;;;;27.84;41.67;101551.19;5073358;28;20099;-78
2022/08/13 17:48:30;;;;;;;6.82;4.95;;;;;;;27.92;41.43;101552.28;5073126;28;20036;-78
2022/08/13 17:50:55;;;;;;;12.75;4.63;;;;;;;27.92;41.65;101546.00;5072923;28;20115;-79
2022/08/13 17:53:22;;;;;;;7.30;4.25;;;;;;;27.92;41.40;101541.50;5073055;28;20101;-80
2022/08/13 17:55:48;;;;;;;10.23;4.15;;;;;;;27.99;41.63;101552.63;5073354;28;20031;-81
2022/08/13 17:58:15;;;;;;;11.55;3.90;;;;;;;27.87;41.90;101554.50;5073525;28;20186;-79
2022/08/13 18:00:41;;;;;;;9.15;3.55;;;;;;;27.63;42.50;101544.78;5073374;28;20074;-79
2022/08/13 18:03:07;;;;;;;10.07;3.83;;;;;;;27.50;43.38;101557.59;5073053;28;20020;-79
2022/08/13 18:05:33;;;;;;;11.43;3.50;;;;;;;27.22;43.66;101535.56;5073272;28;20023;-78
2022/08/13 18:07:59;;;;;;;7.68;3.42;;;;;;;27.16;43.82;101552.22;5073416;28;20100;-79
2022/08/13 18:10:25;;;;;;;117.95;51.67;;;;;;;27.00;44.11;101541.84;5072777;28;20112;-79
2022/08/13 18:12:50;;;;;;;29.27;14.32;;;;;;;26.72;44.85;101525.19;5072530;28;20028;-79
2022/08/13 18:15:16;;;;;;;12.38;4.43;;;;;;;26.70;45.08;101556.75;5072941;28;20031;-80
2022/08/13 18:17:42;;;;;;;13.90;6.75;;;;;;;26.38;45.53;101525.13;5072941;28;20027;-79
2022/08/13 18:20:11;;;;;;;15.23;6.70;;;;;;;26.22;45.45;101530.81;5072990;28;20387;-79
2022/08/13 18:22:37;;;;;;;16.52;6.72;;;;;;;26.27;46.72;101552.03;5074182;28;20028;-90
2022/08/13 18:25:04;;;;;;;15.23;6.63;;;;;;;26.50;46.19;101552.91;5060334;28;20112;-91
2022/08/13 18:27:32;;;;;;;11.40;5.82;;;;;;;26.57;45.18;101551.47;5060112;28;20027;-87
2022/08/13 18:29:58;;;;;;;7.78;4.18;;;;;;;26.73;45.22;101550.28;5076043;28;20028;-86
2022/08/13 18:32:23;;;;;;;15.07;3.78;;;;;;;26.58;44.13;101537.00;5059174;28;20024;-86
2022/08/13 18:34:48;;;;;;;18.45;4.07;;;;;;;26.76;45.17;101553.59;5059344;28;20024;-85
2022/08/13 18:37:14;;;;;;;10.65;2.83;;;;;;;26.74;45.25;101554.69;5059855;28;20066;-92
2022/08/13 18:39:40;;;;;;;14.93;3.28;;;;;;;26.69;44.00;101559.56;5060777;28;20039;-92
2022/08/13 18:42:13;;;;;;;11.63;3.28;;;;;;;26.47;45.36;101539.69;5061023;28;20024;-95
2022/08/13 18:44:42;;;;;;;12.88;3.53;;;;;;;26.56;45.17;101560.50;5076857;28;20032;-91
2022/08/13 18:47:07;;;;;;;7.30;3.00;;;;;;;26.44;45.19;101548.84;5060220;28;20021;-86
2022/08/13 18:49:32;;;;;;;9.13;2.80;;;;;;;26.36;45.35;101540.53;5077165;28;20032;-86
2022/08/13 18:51:58;;;;;;;11.05;3.05;;;;;;;26.33;45.65;101548.00;5059183;28;20361;-86
2022/08/13 18:54:23;;;;;;;9.68;3.15;;;;;;;26.38;45.65;101560.13;5059335;28;20027;-86
2022/08/13 18:56:49;;;;;;;10.40;3.10;;;;;;;26.15;44.98;101540.34;5075854;28;20027;-87
2022/08/13 18:59:14;;;;;;;6.88;2.80;;;;;;;26.26;45.39;101564.59;5058934;28;20033;-90
2022/08/13 19:01:39;;;;;;;11.63;2.90;;;;;;;26.17;44.68;101557.25;5076585;28;20494;-86
2022/08/13 19:04:06;;;;;;;7.95;3.20;;;;;;;26.19;44.31;101560.69;5075320;28;20538;-85
2022/08/13 19:06:33;;;;;;;7.70;2.97;;;;;;;26.24;44.82;101576.47;5075326;28;20115;-86
2022/08/13 19:08:59;;;;;;;4.45;3.15;;;;;;;26.21;45.06;101569.50;5075209;28;20021;-85
2022/08/13 19:11:26;;;;;;;8.38;2.92;;;;;;;26.20;45.39;101569.59;5058402;28;20028;-86
2022/08/13 19:13:53;;;;;;;7.78;3.20;;;;;;;26.09;45.57;101548.91;5075520;28;20055;-86
2022/08/13 19:16:18;;;;;;;8.60;3.00;;;;;;;26.14;45.47;101568.25;5058492;28;20550;-86
